Portada
METAR-TAF:

METAR-TAF

Aeroports :

Wangaratta, Austràlia

latitud: 36-24-57S, longitud: 146-18-25E, altitud: 154 m

Observació

L'informe es va fer fa 25 minuts, a les 05:00 UTC
Vent 3 kt del Nord/Nord-Est
Temperatura 6°C
Humitat 100%
Pressió 1029 hPa
Visibilitat: 9000 m
Cel cobert a una alçada de 300 ft

METAR: YWGT 070500Z AUTO 03003KT 9000 // OVC003 06/06 Q1029

Hora: 15:25 (05:25 UTC)

Pronòstic

L'informe es va fer fa 1 hora i 46 minuts, a les 03:39 UTC
Pronòstic vàlid del 07 a les 03 UTC al 07 a les 14 UTC
Vent 3 kt amb direcció variable
Visibilitat 10 km o més
Cel ennuvolat a una alçada de 300 ft
Evolucionant progressivament
l' 07 a les 08 UTC al 07 a les 10 UTC
Vent 3 kt amb direcció variable
Visibilitat: 0300 m
Cel ennuvolat a una alçada de 100 ft
boira

TAF: YWGT 070339Z 0703/0714 VRB03KT 9999 BKN003 BECMG 0708/0710 VRB03KT 0300 FG BKN001

Observacions i pronòstics meteorològics de més de 4000 aeroports (METAR i TAF).

Les estacions disponibles són els punts grocs i vermells al mapa.

Posi el ratolí al punt desitjat per veure el nom de l'estació.

Feu clic per veure les observacions i els pronòstics meteorològics.

Per canviar el mapa: feu clic els botons verds amb una creu de color negre per apropar; al botó verd amb un guió per allunyar la imatge; o en les fletxes verdes per a mapes adjacents.


METAR-TAF: